createdAt,value
2022-12-12T00:00:43.572Z,-5.79
2022-12-12T00:03:10.285Z,-5.67
2022-12-12T00:05:37.241Z,-5.76
2022-12-12T00:08:04.118Z,-5.72
2022-12-12T00:10:30.827Z,-5.82
2022-12-12T00:12:57.500Z,-5.82
2022-12-12T00:15:24.104Z,-5.87
2022-12-12T00:17:50.807Z,-5.86
2022-12-12T00:20:17.502Z,-5.91
2022-12-12T00:22:44.295Z,-5.90
2022-12-12T00:25:11.782Z,-5.88
2022-12-12T00:27:38.757Z,-5.82
2022-12-12T00:30:06.974Z,-5.82
2022-12-12T00:32:33.645Z,-5.85
2022-12-12T00:35:00.195Z,-5.86
2022-12-12T00:37:26.986Z,-5.78
2022-12-12T00:39:53.730Z,-5.90
2022-12-12T00:42:20.262Z,-5.87
2022-12-12T00:44:46.872Z,-5.87
2022-12-12T00:47:13.542Z,-5.78
2022-12-12T00:49:40.202Z,-5.77
2022-12-12T00:52:06.860Z,-5.87
2022-12-12T00:54:34.086Z,-5.91
2022-12-12T00:57:00.727Z,-5.90
2022-12-12T00:59:27.813Z,-5.98
2022-12-12T01:01:54.499Z,-5.94
2022-12-12T01:04:21.363Z,-5.91
2022-12-12T01:06:50.283Z,-5.94
2022-12-12T01:09:16.903Z,-5.94
2022-12-12T01:11:43.540Z,-5.96
2022-12-12T01:14:10.082Z,-6.03
2022-12-12T01:16:36.956Z,-6.08
2022-12-12T01:19:03.652Z,-6.07
2022-12-12T01:21:30.304Z,-5.96
2022-12-12T01:23:56.974Z,-6.01
2022-12-12T01:26:24.740Z,-6.02
2022-12-12T01:28:52.164Z,-6.11
2022-12-12T01:31:18.887Z,-6.18
2022-12-12T01:33:46.422Z,-6.10
2022-12-12T01:36:16.590Z,-6.05
2022-12-12T01:38:48.718Z,-5.96
2022-12-12T01:41:16.235Z,-6.01
2022-12-12T01:43:42.905Z,-6.08
2022-12-12T01:46:30.763Z,-6.15
2022-12-12T01:49:03.770Z,-6.14
2022-12-12T01:51:31.224Z,-6.27
2022-12-12T01:54:02.704Z,-6.31
2022-12-12T01:56:29.764Z,-6.33
2022-12-12T01:58:56.647Z,-6.34
2022-12-12T02:01:23.773Z,-6.28
2022-12-12T02:03:50.506Z,-6.36
2022-12-12T02:06:20.841Z,-6.33
2022-12-12T02:08:47.872Z,-6.32
2022-12-12T02:11:14.509Z,-6.27
2022-12-12T02:13:41.442Z,-6.25
2022-12-12T02:16:23.142Z,-6.20
2022-12-12T02:19:20.418Z,-6.15
2022-12-12T02:21:59.414Z,-6.18
2022-12-12T02:24:47.894Z,-6.23
2022-12-12T02:27:41.027Z,-6.11
2022-12-12T02:30:11.060Z,-6.17
2022-12-12T02:32:46.680Z,-6.19
2022-12-12T02:35:19.246Z,-6.19
2022-12-12T02:37:56.886Z,-6.21
2022-12-12T02:40:51.610Z,-6.19
2022-12-12T02:43:56.864Z,-6.22
2022-12-12T02:46:48.077Z,-6.19
2022-12-12T02:49:50.003Z,-6.12
2022-12-12T02:52:17.798Z,-6.12
2022-12-12T02:54:44.848Z,-6.12
2022-12-12T02:57:20.469Z,-6.10
2022-12-12T02:59:52.327Z,-6.10
2022-12-12T03:02:40.681Z,-6.04
2022-12-12T03:05:50.677Z,-6.02
2022-12-12T03:08:26.397Z,-6.01
2022-12-12T03:10:59.103Z,-6.15
2022-12-12T03:13:45.377Z,-6.28
2022-12-12T03:16:30.243Z,-6.35
2022-12-12T03:19:10.913Z,-6.21
2022-12-12T03:21:50.650Z,-6.30
2022-12-12T03:24:37.502Z,-6.28
2022-12-12T03:27:23.467Z,-6.30
2022-12-12T03:29:55.704Z,-6.18
2022-12-12T03:32:34.522Z,-6.17
2022-12-12T03:35:08.645Z,-6.27
2022-12-12T03:37:38.134Z,-6.34
2022-12-12T03:40:28.396Z,-6.26
2022-12-12T03:43:00.945Z,-6.21
2022-12-12T03:45:29.372Z,-6.10
2022-12-12T03:48:00.995Z,-6.00
2022-12-12T03:50:32.264Z,-6.08
2022-12-12T03:53:32.587Z,-6.10
2022-12-12T03:56:09.734Z,-6.11
2022-12-12T03:58:49.234Z,-6.18
2022-12-12T04:01:19.672Z,-6.18
2022-12-12T04:04:09.509Z,-6.10
2022-12-12T04:06:39.526Z,-6.06
2022-12-12T04:09:33.442Z,-6.01
2022-12-12T04:12:37.560Z,-6.16
2022-12-12T04:15:04.047Z,-6.26
2022-12-12T04:17:41.958Z,-6.33
2022-12-12T04:20:33.770Z,-6.19
2022-12-12T04:23:34.919Z,-6.24
2022-12-12T04:26:27.714Z,-6.27
2022-12-12T04:29:14.615Z,-6.27
2022-12-12T04:32:00.257Z,-6.23
2022-12-12T04:34:44.594Z,-6.11
2022-12-12T04:37:15.333Z,-6.12
2022-12-12T04:39:43.994Z,-6.03
2022-12-12T04:42:12.242Z,-6.15
2022-12-12T04:44:40.860Z,-6.23
2022-12-12T04:47:08.152Z,-6.25
2022-12-12T04:49:36.406Z,-6.23
2022-12-12T04:52:06.706Z,-6.20
2022-12-12T04:54:57.892Z,-6.30
2022-12-12T04:57:28.119Z,-6.42
2022-12-12T04:59:54.912Z,-6.46
2022-12-12T05:02:26.376Z,-6.38
2022-12-12T05:04:58.156Z,-6.45
2022-12-12T05:07:39.256Z,-6.50
2022-12-12T05:10:10.823Z,-6.55
2022-12-12T05:12:49.055Z,-6.58
2022-12-12T05:15:18.024Z,-6.61
2022-12-12T05:18:08.216Z,-6.58
2022-12-12T05:20:34.992Z,-6.43
2022-12-12T05:23:01.617Z,-6.53
2022-12-12T05:25:28.391Z,-6.54
2022-12-12T05:27:55.018Z,-6.60
2022-12-12T05:30:22.077Z,-6.63
2022-12-12T05:32:48.704Z,-6.62
2022-12-12T05:35:15.560Z,-6.65
2022-12-12T05:37:46.638Z,-6.59
2022-12-12T05:40:16.523Z,-6.43
2022-12-12T05:42:43.236Z,-6.43
2022-12-12T05:45:11.166Z,-6.40
2022-12-12T05:47:37.986Z,-6.35
2022-12-12T05:50:05.398Z,-6.24
2022-12-12T05:52:32.236Z,-6.36
2022-12-12T05:54:58.843Z,-6.29
2022-12-12T05:57:25.508Z,-6.23
2022-12-12T05:59:52.126Z,-6.36
2022-12-12T06:02:18.833Z,-6.40
2022-12-12T06:04:47.527Z,-6.43
2022-12-12T06:07:14.080Z,-6.51
2022-12-12T06:09:40.743Z,-6.44
2022-12-12T06:12:07.910Z,-6.43
2022-12-12T06:14:34.649Z,-6.30
2022-12-12T06:17:01.310Z,-6.32
2022-12-12T06:19:27.995Z,-6.17
2022-12-12T06:21:54.573Z,-6.21
2022-12-12T06:24:21.207Z,-6.28
2022-12-12T06:26:47.796Z,-6.35
2022-12-12T06:29:15.193Z,-6.40
2022-12-12T06:31:41.914Z,-6.33
2022-12-12T06:34:08.535Z,-6.31
2022-12-12T06:36:35.331Z,-6.38
2022-12-12T06:39:02.252Z,-6.25
2022-12-12T06:41:30.560Z,-6.30
2022-12-12T06:43:57.485Z,-6.40
2022-12-12T06:46:26.462Z,-6.38
2022-12-12T06:48:54.384Z,-6.48
2022-12-12T06:51:24.466Z,-6.47
2022-12-12T06:53:51.294Z,-6.41
2022-12-12T06:56:20.839Z,-6.47
2022-12-12T06:58:47.771Z,-6.46
2022-12-12T07:01:15.970Z,-6.49
2022-12-12T07:03:42.670Z,-6.48
2022-12-12T07:06:09.285Z,-6.45
2022-12-12T07:08:36.509Z,-6.52
2022-12-12T07:11:08.790Z,-6.52
2022-12-12T07:13:35.540Z,-6.52
2022-12-12T07:16:02.287Z,-6.37
2022-12-12T07:18:29.196Z,-6.23
2022-12-12T07:20:55.801Z,-6.14
2022-12-12T07:23:22.512Z,-6.07
2022-12-12T07:25:49.150Z,-6.09
2022-12-12T07:28:15.998Z,-6.11
2022-12-12T07:30:45.573Z,-6.07
2022-12-12T07:33:13.973Z,-6.10
2022-12-12T07:35:41.692Z,-6.06
2022-12-12T07:38:09.320Z,-6.03
2022-12-12T07:40:36.055Z,-6.06
2022-12-12T07:43:02.977Z,-5.96
2022-12-12T07:45:29.846Z,-6.10
2022-12-12T07:47:56.467Z,-6.13
2022-12-12T07:50:23.517Z,-6.17
2022-12-12T07:52:50.146Z,-6.18
2022-12-12T07:55:16.793Z,-6.15
2022-12-12T07:57:43.528Z,-6.10
2022-12-12T08:00:13.364Z,-6.01
2022-12-12T08:02:40.091Z,-5.68
2022-12-12T08:05:07.231Z,-5.79
2022-12-12T08:07:33.903Z,-5.80
2022-12-12T08:10:00.519Z,-5.72
2022-12-12T08:12:29.754Z,-5.70
2022-12-12T08:14:56.373Z,-5.75
2022-12-12T08:17:23.139Z,-5.74
2022-12-12T08:19:49.865Z,-5.82
2022-12-12T08:22:16.451Z,-5.83
2022-12-12T08:24:43.142Z,-5.91
2022-12-12T08:27:15.379Z,-5.91
2022-12-12T08:29:43.384Z,-5.88
2022-12-12T08:32:10.194Z,-5.83
2022-12-12T08:34:36.826Z,-5.78
2022-12-12T08:37:03.434Z,-5.67
2022-12-12T08:39:31.373Z,-5.66
2022-12-12T08:41:58.479Z,-5.71
2022-12-12T08:44:25.069Z,-5.68
2022-12-12T08:46:51.828Z,-5.60
2022-12-12T08:49:18.418Z,-5.54
2022-12-12T08:51:45.070Z,-5.60
2022-12-12T08:54:14.603Z,-5.68
2022-12-12T08:56:41.431Z,-5.68
2022-12-12T08:59:08.094Z,-5.66
2022-12-12T09:01:35.034Z,-5.68
2022-12-12T09:04:02.263Z,-5.61
2022-12-12T09:06:28.927Z,-5.53
2022-12-12T09:08:57.329Z,-5.48
2022-12-12T09:11:24.300Z,-5.36
2022-12-12T09:13:51.401Z,-5.29
2022-12-12T09:16:19.499Z,-5.30
2022-12-12T09:18:49.113Z,-5.23
2022-12-12T09:21:16.958Z,-5.22
2022-12-12T09:23:43.618Z,-5.25
2022-12-12T09:26:10.792Z,-5.23
2022-12-12T09:28:37.588Z,-5.22
2022-12-12T09:31:06.658Z,-5.22
2022-12-12T09:33:33.866Z,-5.24
2022-12-12T09:36:02.215Z,-5.21
2022-12-12T09:38:28.904Z,-5.19
2022-12-12T09:41:04.678Z,-5.16
2022-12-12T09:43:37.744Z,-5.12
2022-12-12T09:46:14.482Z,-5.03
2022-12-12T09:48:44.775Z,-5.00
2022-12-12T09:51:11.842Z,-4.96
2022-12-12T09:53:40.438Z,-4.97
2022-12-12T09:56:31.839Z,-4.91
2022-12-12T09:59:21.591Z,-4.86
2022-12-12T10:02:25.988Z,-4.85
2022-12-12T10:04:58.630Z,-4.88
2022-12-12T10:07:43.511Z,-4.87
2022-12-12T10:10:20.946Z,-4.88
2022-12-12T10:12:48.269Z,-4.86
2022-12-12T10:15:25.426Z,-4.83
2022-12-12T10:17:52.535Z,-4.80
2022-12-12T10:20:19.241Z,-4.82
2022-12-12T10:22:48.494Z,-4.78
2022-12-12T10:25:23.977Z,-4.76
2022-12-12T10:27:54.064Z,-4.75
2022-12-12T10:30:21.116Z,-4.69
2022-12-12T10:33:26.432Z,-4.63
2022-12-12T10:36:04.420Z,-4.64
2022-12-12T10:38:59.369Z,-4.65
2022-12-12T10:41:32.060Z,-4.64
2022-12-12T10:44:20.139Z,-4.60
2022-12-12T10:46:54.497Z,-4.57
2022-12-12T10:49:23.366Z,-4.54
2022-12-12T10:51:50.704Z,-4.51
2022-12-12T10:54:27.587Z,-4.57
2022-12-12T10:57:10.485Z,-4.59
2022-12-12T10:59:50.932Z,-4.54
2022-12-12T11:02:27.742Z,-4.46
2022-12-12T11:05:07.027Z,-4.43
2022-12-12T11:07:46.258Z,-4.40
2022-12-12T11:10:22.004Z,-4.39
2022-12-12T11:13:00.563Z,-4.30
2022-12-12T11:15:38.163Z,-4.28
2022-12-12T11:18:06.527Z,-4.23
2022-12-12T11:20:33.288Z,-4.25
2022-12-12T11:22:59.897Z,-4.20
2022-12-12T11:25:32.008Z,-4.09
2022-12-12T11:28:06.391Z,-4.04
2022-12-12T11:30:33.667Z,-4.02
2022-12-12T11:33:00.828Z,-3.99
2022-12-12T11:35:41.155Z,-3.88
2022-12-12T11:38:18.540Z,-3.84
2022-12-12T11:40:45.789Z,-3.89
2022-12-12T11:43:30.158Z,-3.94
2022-12-12T11:46:15.027Z,-3.91
2022-12-12T11:48:47.588Z,-3.88
2022-12-12T11:51:31.356Z,-3.81
2022-12-12T11:53:58.187Z,-3.68
2022-12-12T11:56:45.248Z,-3.55
2022-12-12T11:59:30.616Z,-3.39
2022-12-12T12:02:16.351Z,-3.31
2022-12-12T12:05:03.874Z,-3.20
2022-12-12T12:07:36.508Z,-3.07
2022-12-12T12:10:11.752Z,-2.95
2022-12-12T12:12:56.970Z,-2.79
2022-12-12T12:15:29.412Z,-2.72
2022-12-12T12:18:08.058Z,-2.66
2022-12-12T12:20:37.352Z,-2.64
2022-12-12T12:23:11.167Z,-2.58
2022-12-12T12:25:49.668Z,-2.42
2022-12-12T12:28:31.143Z,-2.31
2022-12-12T12:31:26.682Z,-2.35
2022-12-12T12:34:02.625Z,-2.29
2022-12-12T12:37:00.782Z,-2.16
2022-12-12T12:39:46.582Z,-2.05
2022-12-12T12:42:37.786Z,-2.18
2022-12-12T12:45:16.590Z,-2.06
2022-12-12T12:47:54.725Z,-2.11
2022-12-12T12:50:28.404Z,-2.07
2022-12-12T12:52:59.430Z,-2.05
2022-12-12T12:55:35.683Z,-2.13
2022-12-12T12:58:04.606Z,-1.96
2022-12-12T13:00:31.402Z,-1.93
2022-12-12T13:03:01.125Z,-1.94
2022-12-12T13:05:51.697Z,-1.90
2022-12-12T13:08:21.263Z,-1.83
2022-12-12T13:10:50.590Z,-1.84
2022-12-12T13:13:24.096Z,-1.82
2022-12-12T13:16:17.209Z,-1.83
2022-12-12T13:18:46.180Z,-1.82
2022-12-12T13:21:15.901Z,-1.87
2022-12-12T13:24:04.604Z,-1.96
2022-12-12T13:26:49.651Z,-1.93
2022-12-12T13:29:34.714Z,-1.94
2022-12-12T13:32:22.851Z,-1.96
2022-12-12T13:34:52.818Z,-2.00
2022-12-12T13:37:21.360Z,-1.98
2022-12-12T13:40:01.326Z,-1.98
2022-12-12T13:42:57.948Z,-2.05
2022-12-12T13:45:38.475Z,-2.07
2022-12-12T13:48:35.419Z,-2.06
2022-12-12T13:51:27.306Z,-2.13
2022-12-12T13:54:13.627Z,-2.10
2022-12-12T13:57:11.469Z,-2.11
2022-12-12T13:59:53.425Z,-2.14
2022-12-12T14:02:32.347Z,-2.11
2022-12-12T14:05:21.687Z,-2.18
2022-12-12T14:07:53.834Z,-2.16
2022-12-12T14:10:26.579Z,-2.18
2022-12-12T14:12:54.015Z,-2.24
2022-12-12T14:15:23.939Z,-2.29
2022-12-12T14:17:58.999Z,-2.45
2022-12-12T14:20:36.138Z,-2.47
2022-12-12T14:23:05.423Z,-2.53
2022-12-12T14:25:37.366Z,-2.56
2022-12-12T14:28:21.190Z,-2.58
2022-12-12T14:30:56.789Z,-2.67
2022-12-12T14:33:46.673Z,-2.77
2022-12-12T14:36:19.654Z,-2.91
2022-12-12T14:39:27.864Z,-3.03
2022-12-12T14:41:55.132Z,-3.12
2022-12-12T14:44:36.928Z,-3.20
2022-12-12T14:47:08.817Z,-3.29
2022-12-12T14:49:35.496Z,-3.41
2022-12-12T14:52:02.254Z,-3.54
2022-12-12T14:54:28.902Z,-3.67
2022-12-12T14:56:59.022Z,-3.79
2022-12-12T14:59:34.365Z,-3.92
2022-12-12T15:02:14.881Z,-4.04
2022-12-12T15:04:45.466Z,-4.17
2022-12-12T15:07:33.351Z,-4.30
2022-12-12T15:10:00.079Z,-4.38
2022-12-12T15:12:33.160Z,-4.48
2022-12-12T15:14:59.775Z,-4.55
2022-12-12T15:17:32.910Z,-4.67
2022-12-12T15:20:02.538Z,-4.73
2022-12-12T15:22:37.187Z,-4.81
2022-12-12T15:25:15.909Z,-4.88
2022-12-12T15:27:52.203Z,-4.93
2022-12-12T15:30:29.868Z,-4.99
2022-12-12T15:32:57.810Z,-4.99
2022-12-12T15:35:24.652Z,-5.02
2022-12-12T15:37:56.333Z,-5.02
2022-12-12T15:40:26.063Z,-5.06
2022-12-12T15:42:55.828Z,-5.09
2022-12-12T15:45:25.977Z,-5.12
2022-12-12T15:47:54.561Z,-5.16
2022-12-12T15:50:24.597Z,-5.13
2022-12-12T15:53:07.158Z,-5.12
2022-12-12T15:55:34.586Z,-5.12
2022-12-12T15:58:01.905Z,-5.19
2022-12-12T16:00:35.172Z,-5.21
2022-12-12T16:03:05.992Z,-5.23
2022-12-12T16:05:36.239Z,-5.25
2022-12-12T16:08:32.206Z,-5.27
2022-12-12T16:11:05.185Z,-5.23
2022-12-12T16:13:42.042Z,-5.27
2022-12-12T16:16:43.891Z,-5.32
2022-12-12T16:19:43.779Z,-5.34
2022-12-12T16:22:16.158Z,-5.37
2022-12-12T16:24:48.747Z,-5.37
2022-12-12T16:27:15.440Z,-5.36
2022-12-12T16:29:42.257Z,-5.41
2022-12-12T16:32:13.894Z,-5.47
2022-12-12T16:34:41.975Z,-5.45
2022-12-12T16:37:17.361Z,-5.47
2022-12-12T16:39:44.473Z,-5.49
2022-12-12T16:42:19.397Z,-5.54
2022-12-12T16:44:46.572Z,-5.48
2022-12-12T16:47:22.496Z,-5.50
2022-12-12T16:49:49.190Z,-5.50
2022-12-12T16:52:17.522Z,-5.44
2022-12-12T16:54:51.063Z,-5.38
2022-12-12T16:57:19.682Z,-5.41
2022-12-12T16:59:46.303Z,-5.34
2022-12-12T17:02:19.391Z,-5.38
2022-12-12T17:04:46.014Z,-5.34
2022-12-12T17:07:12.660Z,-5.31
2022-12-12T17:09:39.394Z,-5.25
2022-12-12T17:12:08.775Z,-5.18
2022-12-12T17:14:36.061Z,-5.07
2022-12-12T17:17:05.528Z,-5.04
2022-12-12T17:19:32.285Z,-5.03
2022-12-12T17:21:58.930Z,-5.02
2022-12-12T17:24:25.577Z,-5.01
2022-12-12T17:26:52.212Z,-4.95
2022-12-12T17:29:18.933Z,-4.95
2022-12-12T17:31:45.578Z,-4.99
2022-12-12T17:34:12.242Z,-5.06
2022-12-12T17:36:39.082Z,-5.06
2022-12-12T17:39:05.752Z,-5.14
2022-12-12T17:41:32.342Z,-5.09
2022-12-12T17:43:59.022Z,-5.16
2022-12-12T17:46:27.728Z,-5.16
2022-12-12T17:48:56.828Z,-5.20
2022-12-12T17:51:24.299Z,-5.18
2022-12-12T17:53:52.562Z,-5.13
2022-12-12T17:56:24.343Z,-5.07
2022-12-12T17:58:51.044Z,-5.00
2022-12-12T18:01:24.146Z,-5.04
2022-12-12T18:03:51.611Z,-5.09
2022-12-12T18:06:19.682Z,-5.15
2022-12-12T18:08:46.833Z,-5.20
2022-12-12T18:11:16.585Z,-5.15
2022-12-12T18:13:44.359Z,-5.19
2022-12-12T18:16:13.184Z,-5.22
2022-12-12T18:18:40.526Z,-5.22
2022-12-12T18:24:05.635Z,-5.28
2022-12-12T18:26:32.392Z,-5.32
2022-12-12T18:29:01.038Z,-5.33
2022-12-12T18:31:28.316Z,-5.39
2022-12-12T18:33:55.255Z,-5.46
2022-12-12T18:36:23.519Z,-5.45
2022-12-12T18:38:50.746Z,-5.45
2022-12-12T18:41:18.271Z,-5.52
2022-12-12T18:43:44.835Z,-5.58
2022-12-12T18:46:13.986Z,-5.60
2022-12-12T18:48:42.467Z,-5.62
2022-12-12T18:51:18.550Z,-5.60
2022-12-12T18:53:46.278Z,-5.65
2022-12-12T18:56:22.328Z,-5.66
2022-12-12T18:58:48.950Z,-5.67
2022-12-12T19:01:21.635Z,-5.68
2022-12-12T19:03:50.502Z,-5.70
2022-12-12T19:06:19.667Z,-5.61
2022-12-12T19:08:46.446Z,-5.63
2022-12-12T19:11:13.313Z,-5.58
2022-12-12T19:13:40.275Z,-5.57
2022-12-12T19:16:10.681Z,-5.58
2022-12-12T19:18:38.157Z,-5.60
2022-12-12T19:21:06.862Z,-5.63
2022-12-12T19:23:34.055Z,-5.63
2022-12-12T19:26:12.196Z,-5.57
2022-12-12T19:28:38.873Z,-5.61
2022-12-12T19:31:11.371Z,-5.63
2022-12-12T19:33:38.317Z,-5.59
2022-12-12T19:36:14.075Z,-5.61
2022-12-12T19:38:41.113Z,-5.41
2022-12-12T19:41:09.442Z,-5.36
2022-12-12T19:43:36.295Z,-5.30
2022-12-12T19:46:07.952Z,-5.35
2022-12-12T19:48:35.716Z,-5.30
2022-12-12T19:51:12.355Z,-5.30
2022-12-12T19:53:40.886Z,-5.35
2022-12-12T19:56:07.967Z,-5.39
2022-12-12T19:58:38.727Z,-5.37
2022-12-12T20:01:12.404Z,-5.34
2022-12-12T20:03:39.212Z,-5.29
2022-12-12T20:06:10.821Z,-5.20
2022-12-12T20:08:38.302Z,-5.17
2022-12-12T20:11:07.060Z,-5.01
2022-12-12T20:13:34.556Z,-5.00
2022-12-12T20:16:21.984Z,-4.98
2022-12-12T20:18:49.866Z,-5.10
2022-12-12T20:21:59.365Z,-5.21
2022-12-12T20:24:12.010Z,-5.24
2022-12-12T20:26:40.118Z,-5.27
2022-12-12T20:29:07.529Z,-5.31
2022-12-12T20:31:36.465Z,-5.24
2022-12-12T20:34:03.337Z,-5.21
2022-12-12T20:36:34.866Z,-5.37
2022-12-12T20:39:05.074Z,-5.50
2022-12-12T20:41:34.594Z,-5.46
2022-12-12T20:44:01.227Z,-5.44
2022-12-12T20:46:38.430Z,-5.51
2022-12-12T20:49:09.228Z,-5.57
2022-12-12T20:54:24.252Z,-5.45
2022-12-12T20:56:51.265Z,-5.61
2022-12-12T20:59:18.151Z,-5.53
2022-12-12T21:01:44.883Z,-5.38
2022-12-12T21:04:11.613Z,-5.43
2022-12-12T21:06:48.607Z,-5.49
2022-12-12T21:09:22.546Z,-5.37
2022-12-12T21:11:52.336Z,-5.36
2022-12-12T21:14:19.042Z,-5.41
2022-12-12T21:16:45.632Z,-5.38
2022-12-12T21:19:14.238Z,-5.36
2022-12-12T21:21:42.643Z,-5.41
2022-12-12T21:24:11.447Z,-5.51
2022-12-12T21:26:38.107Z,-5.47
2022-12-12T21:29:04.897Z,-5.43
2022-12-12T21:31:37.061Z,-5.56
2022-12-12T21:34:04.948Z,-5.58
2022-12-12T21:36:31.730Z,-5.66
2022-12-12T21:38:59.464Z,-5.70
2022-12-12T21:41:26.493Z,-5.68
2022-12-12T21:43:53.358Z,-5.65
2022-12-12T21:46:22.108Z,-5.63
2022-12-12T21:49:09.373Z,-5.64
2022-12-12T21:51:36.164Z,-5.60
2022-12-12T21:54:07.111Z,-5.57
2022-12-12T21:56:33.933Z,-5.60
2022-12-12T21:59:00.574Z,-5.51
2022-12-12T22:01:27.819Z,-5.50
2022-12-12T22:03:55.136Z,-5.45
2022-12-12T22:06:26.848Z,-5.49
2022-12-12T22:08:57.420Z,-5.50
2022-12-12T22:11:41.524Z,-5.58
2022-12-12T22:14:11.436Z,-5.55
2022-12-12T22:16:38.354Z,-5.68
2022-12-12T22:19:07.785Z,-5.75
2022-12-12T22:21:35.023Z,-5.69
2022-12-12T22:24:02.375Z,-5.79
2022-12-12T22:26:34.593Z,-5.78
2022-12-12T22:29:07.443Z,-5.88
2022-12-12T22:31:37.421Z,-5.74
2022-12-12T22:34:10.651Z,-5.78
2022-12-12T22:36:38.693Z,-5.80
2022-12-12T22:39:07.604Z,-5.65
2022-12-12T22:41:34.664Z,-5.82
2022-12-12T22:44:03.875Z,-5.73
2022-12-12T22:46:30.649Z,-5.78
2022-12-12T22:48:59.512Z,-5.81
2022-12-12T22:51:29.406Z,-5.89
2022-12-12T22:53:57.324Z,-5.93
2022-12-12T22:56:23.965Z,-6.01
2022-12-12T22:58:50.843Z,-6.03
2022-12-12T23:01:19.839Z,-5.72
2022-12-12T23:03:47.218Z,-5.96
2022-12-12T23:06:16.896Z,-6.03
2022-12-12T23:08:44.303Z,-5.99
2022-12-12T23:11:13.547Z,-5.90
2022-12-12T23:13:43.460Z,-5.94
2022-12-12T23:16:12.908Z,-6.02
2022-12-12T23:18:40.483Z,-6.15
2022-12-12T23:21:14.925Z,-6.18
2022-12-12T23:23:43.543Z,-6.24
2022-12-12T23:26:18.770Z,-6.30
2022-12-12T23:28:46.527Z,-6.38
2022-12-12T23:31:21.948Z,-6.28
2022-12-12T23:33:55.222Z,-6.33
2022-12-12T23:36:22.953Z,-6.31
2022-12-12T23:38:54.608Z,-6.28
2022-12-12T23:41:21.453Z,-6.17
2022-12-12T23:43:49.217Z,-6.18
2022-12-12T23:46:28.679Z,-6.13
2022-12-12T23:48:56.670Z,-6.21
2022-12-12T23:51:24.483Z,-6.27
2022-12-12T23:53:51.149Z,-6.33
2022-12-12T23:56:17.827Z,-6.39
2022-12-12T23:58:44.754Z,-6.28
